sensor_id;sensor_type;location;lat;lon;timestamp;temperature;humidity
15922;DHT22;8060;50.948;3.146;2023-07-02T04:16:26;16.60;99.90
15922;DHT22;8060;50.948;3.146;2023-07-02T04:18:54;16.70;99.90
15922;DHT22;8060;50.948;3.146;2023-07-02T04:21:22;16.80;99.90
15922;DHT22;8060;50.948;3.146;2023-07-02T04:23:50;16.80;99.90
15922;DHT22;8060;50.948;3.146;2023-07-02T04:26:19;16.90;99.90
15922;DHT22;8060;50.948;3.146;2023-07-02T04:29:07;16.90;99.90
15922;DHT22;8060;50.948;3.146;2023-07-02T04:31:36;16.90;99.90
15922;DHT22;8060;50.948;3.146;2023-07-02T04:34:05;17.00;99.90
15922;DHT22;8060;50.948;3.146;2023-07-02T04:36:33;17.00;99.90
15922;DHT22;8060;50.948;3.146;2023-07-02T04:39:01;17.00;99.90
15922;DHT22;8060;50.948;3.146;2023-07-02T04:41:29;17.00;99.90
15922;DHT22;8060;50.948;3.146;2023-07-02T04:43:59;17.00;99.90
15922;DHT22;8060;50.948;3.146;2023-07-02T04:46:28;17.00;99.90
15922;DHT22;8060;50.948;3.146;2023-07-02T04:48:58;17.00;99.90
15922;DHT22;8060;50.948;3.146;2023-07-02T04:51:26;17.10;99.90
15922;DHT22;8060;50.948;3.146;2023-07-02T04:53:54;17.10;99.90
15922;DHT22;8060;50.948;3.146;2023-07-02T04:56:22;17.10;99.90
15922;DHT22;8060;50.948;3.146;2023-07-02T04:58:50;17.20;99.90
15922;DHT22;8060;50.948;3.146;2023-07-02T05:01:18;17.20;99.90
15922;DHT22;8060;50.948;3.146;2023-07-02T05:03:47;17.20;99.90
15922;DHT22;8060;50.948;3.146;2023-07-02T05:06:16;17.30;99.90
15922;DHT22;8060;50.948;3.146;2023-07-02T05:08:44;17.30;99.90
15922;DHT22;8060;50.948;3.146;2023-07-02T05:11:12;17.20;99.90
15922;DHT22;8060;50.948;3.146;2023-07-02T05:13:41;17.30;99.90
15922;DHT22;8060;50.948;3.146;2023-07-02T05:16:09;17.30;99.90
15922;DHT22;8060;50.948;3.146;2023-07-02T05:18:37;17.30;99.90
15922;DHT22;8060;50.948;3.146;2023-07-02T05:21:05;17.30;99.90
15922;DHT22;8060;50.948;3.146;2023-07-02T05:23:35;17.30;99.90
15922;DHT22;8060;50.948;3.146;2023-07-02T05:26:03;17.30;99.90
15922;DHT22;8060;50.948;3.146;2023-07-02T05:28:31;17.30;99.90
15922;DHT22;8060;50.948;3.146;2023-07-02T05:30:59;17.30;99.90
15922;DHT22;8060;50.948;3.146;2023-07-02T05:33:27;17.40;99.90
15922;DHT22;8060;50.948;3.146;2023-07-02T05:35:58;17.40;99.90
15922;DHT22;8060;50.948;3.146;2023-07-02T05:38:26;17.50;99.90
15922;DHT22;8060;50.948;3.146;2023-07-02T05:40:55;17.50;99.90
15922;DHT22;8060;50.948;3.146;2023-07-02T05:43:24;17.60;99.90
15922;DHT22;8060;50.948;3.146;2023-07-02T05:45:52;17.70;99.90
15922;DHT22;8060;50.948;3.146;2023-07-02T05:48:20;17.70;99.90
15922;DHT22;8060;50.948;3.146;2023-07-02T05:50:48;17.70;99.90
15922;DHT22;8060;50.948;3.146;2023-07-02T05:53:16;17.70;99.90
15922;DHT22;8060;50.948;3.146;2023-07-02T05:55:44;17.70;99.90
15922;DHT22;8060;50.948;3.146;2023-07-02T05:58:14;17.70;99.90
15922;DHT22;8060;50.948;3.146;2023-07-02T06:00:42;17.70;99.90
15922;DHT22;8060;50.948;3.146;2023-07-02T06:03:17;17.80;99.90
15922;DHT22;8060;50.948;3.146;2023-07-02T06:05:47;17.80;99.90
15922;DHT22;8060;50.948;3.146;2023-07-02T06:08:17;17.80;99.90
15922;DHT22;8060;50.948;3.146;2023-07-02T06:10:46;17.80;99.90
15922;DHT22;8060;50.948;3.146;2023-07-02T06:13:17;17.80;99.90
15922;DHT22;8060;50.948;3.146;2023-07-02T06:15:45;17.90;99.90
15922;DHT22;8060;50.948;3.146;2023-07-02T06:18:14;17.90;99.90
15922;DHT22;8060;50.948;3.146;2023-07-02T06:20:43;17.90;99.90
15922;DHT22;8060;50.948;3.146;2023-07-02T06:23:11;18.00;99.90
15922;DHT22;8060;50.948;3.146;2023-07-02T06:26:39;18.10;99.90
15922;DHT22;8060;50.948;3.146;2023-07-02T06:29:07;18.20;99.90
15922;DHT22;8060;50.948;3.146;2023-07-02T06:31:35;18.20;99.90
15922;DHT22;8060;50.948;3.146;2023-07-02T06:34:04;18.20;99.90
15922;DHT22;8060;50.948;3.146;2023-07-02T06:36:32;18.20;99.90
15922;DHT22;8060;50.948;3.146;2023-07-02T06:39:00;18.20;99.90
15922;DHT22;8060;50.948;3.146;2023-07-02T06:41:28;18.10;99.90
15922;DHT22;8060;50.948;3.146;2023-07-02T06:43:58;18.20;99.90
15922;DHT22;8060;50.948;3.146;2023-07-02T06:46:26;18.20;99.90
15922;DHT22;8060;50.948;3.146;2023-07-02T06:48:54;18.20;99.90
15922;DHT22;8060;50.948;3.146;2023-07-02T06:51:23;18.20;99.90
15922;DHT22;8060;50.948;3.146;2023-07-02T06:53:52;18.20;99.90
15922;DHT22;8060;50.948;3.146;2023-07-02T06:56:21;18.40;99.90
15922;DHT22;8060;50.948;3.146;2023-07-02T06:58:49;18.40;99.90
15922;DHT22;8060;50.948;3.146;2023-07-02T07:01:18;18.50;99.90
15922;DHT22;8060;50.948;3.146;2023-07-02T07:03:46;18.50;99.90
15922;DHT22;8060;50.948;3.146;2023-07-02T07:06:15;18.50;99.90
15922;DHT22;8060;50.948;3.146;2023-07-02T07:08:43;18.50;99.90
15922;DHT22;8060;50.948;3.146;2023-07-02T07:11:11;18.50;99.90
15922;DHT22;8060;50.948;3.146;2023-07-02T07:13:39;18.50;99.90
15922;DHT22;8060;50.948;3.146;2023-07-02T07:16:08;18.60;99.90
15922;DHT22;8060;50.948;3.146;2023-07-02T07:18:37;18.70;99.90
15922;DHT22;8060;50.948;3.146;2023-07-02T07:21:06;18.70;99.90
15922;DHT22;8060;50.948;3.146;2023-07-02T07:23:34;18.80;99.90
15922;DHT22;8060;50.948;3.146;2023-07-02T07:26:02;18.90;99.90
15922;DHT22;8060;50.948;3.146;2023-07-02T07:28:30;19.00;99.90
15922;DHT22;8060;50.948;3.146;2023-07-02T07:30:58;19.00;99.90
15922;DHT22;8060;50.948;3.146;2023-07-02T07:33:26;19.00;99.90
15922;DHT22;8060;50.948;3.146;2023-07-02T07:35:56;19.10;99.90
15922;DHT22;8060;50.948;3.146;2023-07-02T07:38:25;19.10;99.90
15922;DHT22;8060;50.948;3.146;2023-07-02T07:40:53;19.10;99.90
15922;DHT22;8060;50.948;3.146;2023-07-02T07:43:21;19.00;99.90
15922;DHT22;8060;50.948;3.146;2023-07-02T07:45:49;19.00;99.90
15922;DHT22;8060;50.948;3.146;2023-07-02T07:48:17;19.00;99.90
15922;DHT22;8060;50.948;3.146;2023-07-02T07:50:45;19.10;99.90
15922;DHT22;8060;50.948;3.146;2023-07-02T07:53:15;19.20;99.90
15922;DHT22;8060;50.948;3.146;2023-07-02T07:55:43;19.30;99.90
15922;DHT22;8060;50.948;3.146;2023-07-02T07:58:11;19.40;99.90
15922;DHT22;8060;50.948;3.146;2023-07-02T08:00:40;19.60;99.90
15922;DHT22;8060;50.948;3.146;2023-07-02T08:03:09;19.70;99.90
15922;DHT22;8060;50.948;3.146;2023-07-02T08:05:37;19.90;99.90
15922;DHT22;8060;50.948;3.146;2023-07-02T08:08:05;19.90;99.90
15922;DHT22;8060;50.948;3.146;2023-07-02T08:10:36;20.00;99.90
15922;DHT22;8060;50.948;3.146;2023-07-02T08:13:04;20.10;99.90
15922;DHT22;8060;50.948;3.146;2023-07-02T08:15:32;20.30;99.90
15922;DHT22;8060;50.948;3.146;2023-07-02T08:18:00;20.40;99.90
15922;DHT22;8060;50.948;3.146;2023-07-02T08:20:30;20.40;99.90
15922;DHT22;8060;50.948;3.146;2023-07-02T08:22:58;20.40;99.90
15922;DHT22;8060;50.948;3.146;2023-07-02T08:25:26;20.40;99.90
15922;DHT22;8060;50.948;3.146;2023-07-02T08:27:57;20.40;99.90
15922;DHT22;8060;50.948;3.146;2023-07-02T08:30:25;20.40;99.90
15922;DHT22;8060;50.948;3.146;2023-07-02T08:32:53;20.40;99.90
15922;DHT22;8060;50.948;3.146;2023-07-02T08:35:22;20.40;99.90
15922;DHT22;8060;50.948;3.146;2023-07-02T08:37:50;20.60;99.90
15922;DHT22;8060;50.948;3.146;2023-07-02T08:40:19;20.70;99.90
15922;DHT22;8060;50.948;3.146;2023-07-02T08:42:47;20.70;99.90
15922;DHT22;8060;50.948;3.146;2023-07-02T08:45:17;20.80;99.90
15922;DHT22;8060;50.948;3.146;2023-07-02T08:47:45;20.80;99.90
15922;DHT22;8060;50.948;3.146;2023-07-02T08:50:14;20.80;99.90
15922;DHT22;8060;50.948;3.146;2023-07-02T08:52:42;21.00;99.90
15922;DHT22;8060;50.948;3.146;2023-07-02T08:55:12;21.00;99.90
15922;DHT22;8060;50.948;3.146;2023-07-02T08:57:40;21.00;99.90
15922;DHT22;8060;50.948;3.146;2023-07-02T09:00:12;21.00;99.90
15922;DHT22;8060;50.948;3.146;2023-07-02T09:02:41;21.10;99.90
15922;DHT22;8060;50.948;3.146;2023-07-02T09:05:09;21.10;99.90
15922;DHT22;8060;50.948;3.146;2023-07-02T09:07:45;21.00;99.90
15922;DHT22;8060;50.948;3.146;2023-07-02T09:10:26;21.10;99.90
15922;DHT22;8060;50.948;3.146;2023-07-02T09:13:04;21.10;99.90
15922;DHT22;8060;50.948;3.146;2023-07-02T09:15:36;21.00;99.90
15922;DHT22;8060;50.948;3.146;2023-07-02T09:18:16;21.00;99.90
15922;DHT22;8060;50.948;3.146;2023-07-02T09:20:44;20.90;99.90
15922;DHT22;8060;50.948;3.146;2023-07-02T09:23:13;21.00;99.90
15922;DHT22;8060;50.948;3.146;2023-07-02T09:25:41;21.20;99.90
15922;DHT22;8060;50.948;3.146;2023-07-02T09:28:18;21.60;99.90
15922;DHT22;8060;50.948;3.146;2023-07-02T09:30:50;21.90;99.90
15922;DHT22;8060;50.948;3.146;2023-07-02T09:33:20;22.20;99.90
15922;DHT22;8060;50.948;3.146;2023-07-02T09:35:49;22.20;99.90
15922;DHT22;8060;50.948;3.146;2023-07-02T09:38:21;21.90;99.90
15922;DHT22;8060;50.948;3.146;2023-07-02T09:40:51;21.70;99.90
15922;DHT22;8060;50.948;3.146;2023-07-02T09:43:20;21.60;99.90
15922;DHT22;8060;50.948;3.146;2023-07-02T09:45:52;21.40;99.90
15922;DHT22;8060;50.948;3.146;2023-07-02T09:48:24;21.40;99.90
15922;DHT22;8060;50.948;3.146;2023-07-02T09:50:53;21.50;99.90
15922;DHT22;8060;50.948;3.146;2023-07-02T09:53:22;21.60;99.90
15922;DHT22;8060;50.948;3.146;2023-07-02T09:55:50;22.00;99.90
15922;DHT22;8060;50.948;3.146;2023-07-02T09:58:18;22.40;99.90
15922;DHT22;8060;50.948;3.146;2023-07-02T10:00:46;22.60;99.90
15922;DHT22;8060;50.948;3.146;2023-07-02T10:03:15;22.60;99.90
15922;DHT22;8060;50.948;3.146;2023-07-02T10:05:44;22.40;99.90
15922;DHT22;8060;50.948;3.146;2023-07-02T10:08:14;22.20;99.90
15922;DHT22;8060;50.948;3.146;2023-07-02T10:10:44;22.30;99.90
15922;DHT22;8060;50.948;3.146;2023-07-02T10:13:13;22.40;99.90
15922;DHT22;8060;50.948;3.146;2023-07-02T10:15:41;22.80;99.90
15922;DHT22;8060;50.948;3.146;2023-07-02T10:18:09;22.90;99.90
15922;DHT22;8060;50.948;3.146;2023-07-02T10:20:39;23.00;99.90
15922;DHT22;8060;50.948;3.146;2023-07-02T10:23:09;22.80;99.90
15922;DHT22;8060;50.948;3.146;2023-07-02T10:25:38;22.50;99.90
15922;DHT22;8060;50.948;3.146;2023-07-02T10:28:17;22.10;99.90
15922;DHT22;8060;50.948;3.146;2023-07-02T10:30:46;22.30;99.90
15922;DHT22;8060;50.948;3.146;2023-07-02T10:33:16;22.50;99.90
15922;DHT22;8060;50.948;3.146;2023-07-02T10:35:45;22.70;99.90
15922;DHT22;8060;50.948;3.146;2023-07-02T10:38:19;22.90;99.90
15922;DHT22;8060;50.948;3.146;2023-07-02T10:40:54;23.00;99.90
15922;DHT22;8060;50.948;3.146;2023-07-02T10:43:26;23.10;99.90
15922;DHT22;8060;50.948;3.146;2023-07-02T10:45:57;23.00;99.90
15922;DHT22;8060;50.948;3.146;2023-07-02T10:48:27;22.70;99.90
15922;DHT22;8060;50.948;3.146;2023-07-02T10:50:55;22.60;99.90
15922;DHT22;8060;50.948;3.146;2023-07-02T10:53:25;22.50;99.90
15922;DHT22;8060;50.948;3.146;2023-07-02T10:55:54;22.50;99.90
15922;DHT22;8060;50.948;3.146;2023-07-02T10:58:24;22.50;99.90
15922;DHT22;8060;50.948;3.146;2023-07-02T11:00:52;22.70;99.90
15922;DHT22;8060;50.948;3.146;2023-07-02T11:03:22;23.10;99.90
15922;DHT22;8060;50.948;3.146;2023-07-02T11:05:52;23.50;99.90
15922;DHT22;8060;50.948;3.146;2023-07-02T11:08:21;23.70;99.90
15922;DHT22;8060;50.948;3.146;2023-07-02T11:11:06;23.70;99.90
15922;DHT22;8060;50.948;3.146;2023-07-02T11:13:44;23.50;99.90
15922;DHT22;8060;50.948;3.146;2023-07-02T11:16:23;23.50;99.90
15922;DHT22;8060;50.948;3.146;2023-07-02T11:18:53;23.40;99.90
15922;DHT22;8060;50.948;3.146;2023-07-02T11:21:22;23.40;99.90
15922;DHT22;8060;50.948;3.146;2023-07-02T11:23:50;23.50;99.90
15922;DHT22;8060;50.948;3.146;2023-07-02T11:26:19;23.60;99.90
15922;DHT22;8060;50.948;3.146;2023-07-02T11:28:49;23.60;99.90
15922;DHT22;8060;50.948;3.146;2023-07-02T11:31:24;23.50;99.90
15922;DHT22;8060;50.948;3.146;2023-07-02T11:33:56;23.20;99.90
15922;DHT22;8060;50.948;3.146;2023-07-02T11:36:24;23.00;99.90
15922;DHT22;8060;50.948;3.146;2023-07-02T11:38:55;23.00;99.90
15922;DHT22;8060;50.948;3.146;2023-07-02T11:41:24;23.20;99.90
15922;DHT22;8060;50.948;3.146;2023-07-02T11:43:52;23.70;99.90
15922;DHT22;8060;50.948;3.146;2023-07-02T11:46:20;24.00;99.90
15922;DHT22;8060;50.948;3.146;2023-07-02T11:48:49;23.90;99.90
15922;DHT22;8060;50.948;3.146;2023-07-02T11:51:17;23.80;99.90
15922;DHT22;8060;50.948;3.146;2023-07-02T11:56:09;23.80;99.90
15922;DHT22;8060;50.948;3.146;2023-07-02T11:58:40;23.60;99.90
15922;DHT22;8060;50.948;3.146;2023-07-02T12:01:09;23.70;99.90
15922;DHT22;8060;50.948;3.146;2023-07-02T12:03:37;24.10;99.90
15922;DHT22;8060;50.948;3.146;2023-07-02T12:06:05;24.60;99.90
15922;DHT22;8060;50.948;3.146;2023-07-02T12:08:33;24.90;99.90
15922;DHT22;8060;50.948;3.146;2023-07-02T12:11:01;25.10;99.90
15922;DHT22;8060;50.948;3.146;2023-07-02T12:13:31;24.90;99.90
15922;DHT22;8060;50.948;3.146;2023-07-02T12:15:59;24.70;99.90
15922;DHT22;8060;50.948;3.146;2023-07-02T12:18:27;24.50;99.90
15922;DHT22;8060;50.948;3.146;2023-07-02T12:20:55;24.20;99.90
15922;DHT22;8060;50.948;3.146;2023-07-02T12:23:23;23.90;99.90
15922;DHT22;8060;50.948;3.146;2023-07-02T12:25:52;24.10;99.90
15922;DHT22;8060;50.948;3.146;2023-07-02T12:28:20;24.50;99.90
15922;DHT22;8060;50.948;3.146;2023-07-02T12:30:49;24.60;99.90
15922;DHT22;8060;50.948;3.146;2023-07-02T12:33:17;24.60;99.90
15922;DHT22;8060;50.948;3.146;2023-07-02T12:35:46;24.40;99.90
15922;DHT22;8060;50.948;3.146;2023-07-02T12:38:15;24.40;99.90
15922;DHT22;8060;50.948;3.146;2023-07-02T12:40:43;24.40;99.90
15922;DHT22;8060;50.948;3.146;2023-07-02T12:43:11;24.10;99.90
15922;DHT22;8060;50.948;3.146;2023-07-02T12:45:39;23.90;99.90
15922;DHT22;8060;50.948;3.146;2023-07-02T12:48:09;23.90;99.90
15922;DHT22;8060;50.948;3.146;2023-07-02T12:50:37;24.00;99.90
15922;DHT22;8060;50.948;3.146;2023-07-02T12:53:06;24.00;99.90
15922;DHT22;8060;50.948;3.146;2023-07-02T12:55:34;24.20;99.90
15922;DHT22;8060;50.948;3.146;2023-07-02T12:58:02;24.40;99.90
15922;DHT22;8060;50.948;3.146;2023-07-02T13:00:30;24.40;99.90
15922;DHT22;8060;50.948;3.146;2023-07-02T13:02:58;24.50;99.90
15922;DHT22;8060;50.948;3.146;2023-07-02T13:05:33;24.50;99.90
15922;DHT22;8060;50.948;3.146;2023-07-02T13:08:01;24.30;99.90
15922;DHT22;8060;50.948;3.146;2023-07-02T13:10:29;24.20;99.90
15922;DHT22;8060;50.948;3.146;2023-07-02T13:12:58;24.20;99.90
15922;DHT22;8060;50.948;3.146;2023-07-02T13:15:39;24.20;99.90
15922;DHT22;8060;50.948;3.146;2023-07-02T13:18:08;24.00;99.90
15922;DHT22;8060;50.948;3.146;2023-07-02T13:20:37;24.00;99.90
15922;DHT22;8060;50.948;3.146;2023-07-02T13:23:05;23.80;99.90
15922;DHT22;8060;50.948;3.146;2023-07-02T13:25:33;23.90;99.90
15922;DHT22;8060;50.948;3.146;2023-07-02T13:28:01;24.10;99.90
15922;DHT22;8060;50.948;3.146;2023-07-02T13:30:29;24.30;99.90
15922;DHT22;8060;50.948;3.146;2023-07-02T13:32:58;24.30;99.90
15922;DHT22;8060;50.948;3.146;2023-07-02T13:35:26;24.30;99.90
15922;DHT22;8060;50.948;3.146;2023-07-02T13:37:56;24.20;99.90
15922;DHT22;8060;50.948;3.146;2023-07-02T13:40:26;24.40;99.90
15922;DHT22;8060;50.948;3.146;2023-07-02T13:42:54;24.40;99.90
15922;DHT22;8060;50.948;3.146;2023-07-02T13:45:22;24.30;99.90
15922;DHT22;8060;50.948;3.146;2023-07-02T13:47:51;24.10;99.90
15922;DHT22;8060;50.948;3.146;2023-07-02T13:50:19;24.10;99.90
15922;DHT22;8060;50.948;3.146;2023-07-02T13:52:48;24.20;99.90
15922;DHT22;8060;50.948;3.146;2023-07-02T13:55:18;24.10;99.90
15922;DHT22;8060;50.948;3.146;2023-07-02T13:57:47;24.20;99.90
15922;DHT22;8060;50.948;3.146;2023-07-02T14:00:17;24.20;99.90
15922;DHT22;8060;50.948;3.146;2023-07-02T14:02:45;24.10;99.90
15922;DHT22;8060;50.948;3.146;2023-07-02T14:05:14;24.20;99.90
15922;DHT22;8060;50.948;3.146;2023-07-02T14:07:42;24.40;99.90
15922;DHT22;8060;50.948;3.146;2023-07-02T14:10:10;24.50;99.90
15922;DHT22;8060;50.948;3.146;2023-07-02T14:12:39;24.40;99.90
15922;DHT22;8060;50.948;3.146;2023-07-02T14:15:08;24.50;99.90
15922;DHT22;8060;50.948;3.146;2023-07-02T14:17:38;24.60;99.90
15922;DHT22;8060;50.948;3.146;2023-07-02T14:20:07;24.80;99.90
15922;DHT22;8060;50.948;3.146;2023-07-02T14:22:36;24.70;99.90
15922;DHT22;8060;50.948;3.146;2023-07-02T14:25:04;24.80;99.90
15922;DHT22;8060;50.948;3.146;2023-07-02T14:27:33;24.90;99.90
15922;DHT22;8060;50.948;3.146;2023-07-02T14:30:01;25.00;99.90
15922;DHT22;8060;50.948;3.146;2023-07-02T14:32:34;24.90;99.90
15922;DHT22;8060;50.948;3.146;2023-07-02T14:35:05;24.60;99.90
15922;DHT22;8060;50.948;3.146;2023-07-02T14:37:33;24.60;99.90
15922;DHT22;8060;50.948;3.146;2023-07-02T14:40:01;24.50;99.90
15922;DHT22;8060;50.948;3.146;2023-07-02T14:42:33;24.30;99.90
15922;DHT22;8060;50.948;3.146;2023-07-02T14:45:01;24.30;99.90
15922;DHT22;8060;50.948;3.146;2023-07-02T14:47:29;24.10;99.90
15922;DHT22;8060;50.948;3.146;2023-07-02T14:49:58;24.10;99.90
15922;DHT22;8060;50.948;3.146;2023-07-02T14:52:27;24.20;99.90
15922;DHT22;8060;50.948;3.146;2023-07-02T14:54:55;24.40;99.90
15922;DHT22;8060;50.948;3.146;2023-07-02T14:57:26;24.60;99.90
15922;DHT22;8060;50.948;3.146;2023-07-02T14:59:54;24.30;99.90
15922;DHT22;8060;50.948;3.146;2023-07-02T15:02:23;24.50;99.90
15922;DHT22;8060;50.948;3.146;2023-07-02T15:04:51;24.50;99.90
15922;DHT22;8060;50.948;3.146;2023-07-02T15:07:19;24.40;99.90
15922;DHT22;8060;50.948;3.146;2023-07-02T15:09:50;24.20;99.90
15922;DHT22;8060;50.948;3.146;2023-07-02T15:12:18;24.10;99.90
15922;DHT22;8060;50.948;3.146;2023-07-02T15:14:46;24.10;99.90
15922;DHT22;8060;50.948;3.146;2023-07-02T15:17:14;24.20;99.90
15922;DHT22;8060;50.948;3.146;2023-07-02T15:19:42;24.00;99.90
15922;DHT22;8060;50.948;3.146;2023-07-02T15:22:11;24.00;99.90
15922;DHT22;8060;50.948;3.146;2023-07-02T15:24:39;24.00;99.90
15922;DHT22;8060;50.948;3.146;2023-07-02T15:27:08;23.90;99.90
15922;DHT22;8060;50.948;3.146;2023-07-02T15:29:36;23.60;99.90
15922;DHT22;8060;50.948;3.146;2023-07-02T15:32:04;23.70;99.90
15922;DHT22;8060;50.948;3.146;2023-07-02T15:34:32;23.60;99.90
15922;DHT22;8060;50.948;3.146;2023-07-02T15:37:01;23.50;99.90
15922;DHT22;8060;50.948;3.146;2023-07-02T15:39:29;23.30;99.90
15922;DHT22;8060;50.948;3.146;2023-07-02T15:42:00;23.10;99.90
15922;DHT22;8060;50.948;3.146;2023-07-02T15:44:29;23.10;99.90
15922;DHT22;8060;50.948;3.146;2023-07-02T15:46:57;23.10;99.90
15922;DHT22;8060;50.948;3.146;2023-07-02T15:49:26;23.00;99.90
15922;DHT22;8060;50.948;3.146;2023-07-02T15:51:54;23.00;99.90
15922;DHT22;8060;50.948;3.146;2023-07-02T15:54:22;22.80;99.90
15922;DHT22;8060;50.948;3.146;2023-07-02T15:56:50;22.80;99.90
15922;DHT22;8060;50.948;3.146;2023-07-02T15:59:20;22.90;99.90
15922;DHT22;8060;50.948;3.146;2023-07-02T16:01:50;23.00;99.90
15922;DHT22;8060;50.948;3.146;2023-07-02T16:04:18;22.90;99.90
15922;DHT22;8060;50.948;3.146;2023-07-02T16:06:47;22.70;99.90
15922;DHT22;8060;50.948;3.146;2023-07-02T16:09:15;22.50;99.90
15922;DHT22;8060;50.948;3.146;2023-07-02T16:11:43;22.40;99.90
15922;DHT22;8060;50.948;3.146;2023-07-02T16:14:12;22.20;99.90
15922;DHT22;8060;50.948;3.146;2023-07-02T16:16:42;22.10;99.90
15922;DHT22;8060;50.948;3.146;2023-07-02T16:19:14;22.10;99.90
15922;DHT22;8060;50.948;3.146;2023-07-02T16:21:43;22.10;99.90
15922;DHT22;8060;50.948;3.146;2023-07-02T16:24:17;22.10;99.90
15922;DHT22;8060;50.948;3.146;2023-07-02T16:26:47;22.20;99.90
15922;DHT22;8060;50.948;3.146;2023-07-02T16:29:15;22.30;99.90
15922;DHT22;8060;50.948;3.146;2023-07-02T16:31:44;22.50;99.90
15922;DHT22;8060;50.948;3.146;2023-07-02T16:34:14;22.30;99.90
15922;DHT22;8060;50.948;3.146;2023-07-02T16:36:43;22.40;99.90
15922;DHT22;8060;50.948;3.146;2023-07-02T16:39:12;22.20;99.90
15922;DHT22;8060;50.948;3.146;2023-07-02T16:41:41;22.10;99.90
15922;DHT22;8060;50.948;3.146;2023-07-02T16:44:14;22.00;99.90
15922;DHT22;8060;50.948;3.146;2023-07-02T16:46:44;22.00;99.90
15922;DHT22;8060;50.948;3.146;2023-07-02T16:49:14;22.10;99.90
15922;DHT22;8060;50.948;3.146;2023-07-02T16:51:42;22.10;99.90
15922;DHT22;8060;50.948;3.146;2023-07-02T16:54:13;22.00;99.90
15922;DHT22;8060;50.948;3.146;2023-07-02T16:56:43;22.00;99.90
15922;DHT22;8060;50.948;3.146;2023-07-02T16:59:14;21.90;99.90
15922;DHT22;8060;50.948;3.146;2023-07-02T17:01:44;21.80;99.90
15922;DHT22;8060;50.948;3.146;2023-07-02T17:04:15;21.80;99.90
15922;DHT22;8060;50.948;3.146;2023-07-02T17:06:45;21.60;99.90
15922;DHT22;8060;50.948;3.146;2023-07-02T17:09:19;21.60;99.90
15922;DHT22;8060;50.948;3.146;2023-07-02T17:11:48;21.60;99.90
15922;DHT22;8060;50.948;3.146;2023-07-02T17:14:18;21.50;99.90
15922;DHT22;8060;50.948;3.146;2023-07-02T17:16:50;21.50;99.90
15922;DHT22;8060;50.948;3.146;2023-07-02T17:19:25;21.60;99.90
15922;DHT22;8060;50.948;3.146;2023-07-02T17:21:53;21.70;99.90
15922;DHT22;8060;50.948;3.146;2023-07-02T17:24:24;21.50;99.90
15922;DHT22;8060;50.948;3.146;2023-07-02T17:26:53;21.40;99.90
15922;DHT22;8060;50.948;3.146;2023-07-02T17:29:21;21.40;99.90
15922;DHT22;8060;50.948;3.146;2023-07-02T17:31:51;21.30;99.90
15922;DHT22;8060;50.948;3.146;2023-07-02T17:34:23;21.30;99.90
15922;DHT22;8060;50.948;3.146;2023-07-02T17:36:52;21.20;99.90
15922;DHT22;8060;50.948;3.146;2023-07-02T17:39:21;21.30;99.90
15922;DHT22;8060;50.948;3.146;2023-07-02T17:41:51;21.20;99.90
15922;DHT22;8060;50.948;3.146;2023-07-02T17:44:22;21.00;99.90
15922;DHT22;8060;50.948;3.146;2023-07-02T17:46:53;21.00;99.90
15922;DHT22;8060;50.948;3.146;2023-07-02T17:49:25;20.90;99.90
15922;DHT22;8060;50.948;3.146;2023-07-02T17:51:54;20.90;99.90
15922;DHT22;8060;50.948;3.146;2023-07-02T17:54:22;20.80;99.90
15922;DHT22;8060;50.948;3.146;2023-07-02T17:56:52;20.80;99.90
15922;DHT22;8060;50.948;3.146;2023-07-02T17:59:21;20.80;99.90
15922;DHT22;8060;50.948;3.146;2023-07-02T18:01:52;20.80;99.90
15922;DHT22;8060;50.948;3.146;2023-07-02T18:04:22;20.80;99.90
15922;DHT22;8060;50.948;3.146;2023-07-02T18:07:00;20.70;99.90
15922;DHT22;8060;50.948;3.146;2023-07-02T18:09:29;20.70;99.90
15922;DHT22;8060;50.948;3.146;2023-07-02T18:11:57;20.60;99.90
15922;DHT22;8060;50.948;3.146;2023-07-02T18:14:25;20.70;99.90
15922;DHT22;8060;50.948;3.146;2023-07-02T18:16:54;20.80;99.90
15922;DHT22;8060;50.948;3.146;2023-07-02T18:19:24;20.80;99.90
15922;DHT22;8060;50.948;3.146;2023-07-02T18:21:53;20.70;99.90
15922;DHT22;8060;50.948;3.146;2023-07-02T18:24:27;20.50;99.90
15922;DHT22;8060;50.948;3.146;2023-07-02T18:26:55;20.30;99.90
15922;DHT22;8060;50.948;3.146;2023-07-02T18:29:24;20.20;99.90
15922;DHT22;8060;50.948;3.146;2023-07-02T18:31:52;20.20;99.90
15922;DHT22;8060;50.948;3.146;2023-07-02T18:34:20;20.20;99.90
15922;DHT22;8060;50.948;3.146;2023-07-02T18:36:50;20.20;99.90
15922;DHT22;8060;50.948;3.146;2023-07-02T18:39:18;20.20;99.90
15922;DHT22;8060;50.948;3.146;2023-07-02T18:41:48;20.20;99.90
15922;DHT22;8060;50.948;3.146;2023-07-02T18:44:16;20.20;99.90
15922;DHT22;8060;50.948;3.146;2023-07-02T18:46:44;20.10;99.90
15922;DHT22;8060;50.948;3.146;2023-07-02T18:49:13;20.10;99.90
15922;DHT22;8060;50.948;3.146;2023-07-02T18:51:41;20.10;99.90
15922;DHT22;8060;50.948;3.146;2023-07-02T18:54:10;20.10;99.90
15922;DHT22;8060;50.948;3.146;2023-07-02T18:56:38;20.10;99.90
15922;DHT22;8060;50.948;3.146;2023-07-02T18:59:07;20.10;99.90
15922;DHT22;8060;50.948;3.146;2023-07-02T19:01:35;20.00;99.90
15922;DHT22;8060;50.948;3.146;2023-07-02T19:04:03;20.00;99.90
15922;DHT22;8060;50.948;3.146;2023-07-02T19:06:32;19.90;99.90
15922;DHT22;8060;50.948;3.146;2023-07-02T19:09:01;19.90;99.90
15922;DHT22;8060;50.948;3.146;2023-07-02T19:11:30;19.90;99.90
15922;DHT22;8060;50.948;3.146;2023-07-02T19:14:00;19.70;99.90
15922;DHT22;8060;50.948;3.146;2023-07-02T19:16:28;19.70;99.90
15922;DHT22;8060;50.948;3.146;2023-07-02T19:18:56;19.70;99.90
15922;DHT22;8060;50.948;3.146;2023-07-02T19:21:24;19.70;99.90
15922;DHT22;8060;50.948;3.146;2023-07-02T19:23:52;19.60;99.90
15922;DHT22;8060;50.948;3.146;2023-07-02T19:26:25;19.40;99.90
